sensor_id;sensor_type;location;lat;lon;timestamp;temperature;humidity
5055;DHT22;13829;48.990;8.346;2022-07-29T00:01:50;22.10;94.30
5055;DHT22;13829;48.990;8.346;2022-07-29T00:04:17;22.10;94.70
5055;DHT22;13829;48.990;8.346;2022-07-29T00:06:46;22.00;95.00
5055;DHT22;13829;48.990;8.346;2022-07-29T00:09:13;22.00;95.60
5055;DHT22;13829;48.990;8.346;2022-07-29T00:11:40;22.00;95.80
5055;DHT22;13829;48.990;8.346;2022-07-29T00:14:07;21.90;96.20
5055;DHT22;13829;48.990;8.346;2022-07-29T00:16:34;21.90;96.40
5055;DHT22;13829;48.990;8.346;2022-07-29T00:19:02;21.80;96.70
5055;DHT22;13829;48.990;8.346;2022-07-29T00:21:29;21.80;97.10
5055;DHT22;13829;48.990;8.346;2022-07-29T00:23:58;21.70;97.60
5055;DHT22;13829;48.990;8.346;2022-07-29T00:26:25;21.70;98.20
5055;DHT22;13829;48.990;8.346;2022-07-29T00:28:57;21.60;98.70
5055;DHT22;13829;48.990;8.346;2022-07-29T00:31:24;21.60;99.10
5055;DHT22;13829;48.990;8.346;2022-07-29T00:33:51;21.50;99.70
5055;DHT22;13829;48.990;8.346;2022-07-29T00:36:18;21.40;99.90
5055;DHT22;13829;48.990;8.346;2022-07-29T00:38:46;21.30;99.90
5055;DHT22;13829;48.990;8.346;2022-07-29T00:41:15;21.30;99.90
5055;DHT22;13829;48.990;8.346;2022-07-29T00:43:42;21.20;99.90
5055;DHT22;13829;48.990;8.346;2022-07-29T00:46:11;21.20;99.90
5055;DHT22;13829;48.990;8.346;2022-07-29T00:48:38;21.10;99.90
5055;DHT22;13829;48.990;8.346;2022-07-29T00:51:05;21.10;99.90
5055;DHT22;13829;48.990;8.346;2022-07-29T00:53:35;21.00;99.90
5055;DHT22;13829;48.990;8.346;2022-07-29T00:56:03;21.10;99.90
5055;DHT22;13829;48.990;8.346;2022-07-29T00:58:32;21.00;99.90
5055;DHT22;13829;48.990;8.346;2022-07-29T01:00:59;20.90;99.90
5055;DHT22;13829;48.990;8.346;2022-07-29T01:03:26;20.90;99.90
5055;DHT22;13829;48.990;8.346;2022-07-29T01:05:53;20.80;99.90
5055;DHT22;13829;48.990;8.346;2022-07-29T01:08:21;20.80;99.90
5055;DHT22;13829;48.990;8.346;2022-07-29T01:10:50;20.60;99.90
5055;DHT22;13829;48.990;8.346;2022-07-29T01:13:19;20.50;99.90
5055;DHT22;13829;48.990;8.346;2022-07-29T01:15:54;20.50;99.90
5055;DHT22;13829;48.990;8.346;2022-07-29T01:18:28;20.40;99.90
5055;DHT22;13829;48.990;8.346;2022-07-29T01:21:21;20.40;99.90
5055;DHT22;13829;48.990;8.346;2022-07-29T01:24:24;20.30;99.90
5055;DHT22;13829;48.990;8.346;2022-07-29T01:27:06;20.20;99.90
5055;DHT22;13829;48.990;8.346;2022-07-29T01:29:53;20.20;99.90
5055;DHT22;13829;48.990;8.346;2022-07-29T01:32:26;20.20;99.90
5055;DHT22;13829;48.990;8.346;2022-07-29T01:35:02;20.20;99.90
5055;DHT22;13829;48.990;8.346;2022-07-29T01:37:37;20.20;99.90
5055;DHT22;13829;48.990;8.346;2022-07-29T01:40:14;20.10;99.90
5055;DHT22;13829;48.990;8.346;2022-07-29T01:42:50;20.00;99.90
5055;DHT22;13829;48.990;8.346;2022-07-29T01:45:24;19.90;99.90
5055;DHT22;13829;48.990;8.346;2022-07-29T01:47:58;19.90;99.90
5055;DHT22;13829;48.990;8.346;2022-07-29T01:50:33;19.80;99.90
5055;DHT22;13829;48.990;8.346;2022-07-29T01:53:04;19.80;99.90
5055;DHT22;13829;48.990;8.346;2022-07-29T01:55:38;19.80;99.90
5055;DHT22;13829;48.990;8.346;2022-07-29T01:58:11;19.70;99.90
5055;DHT22;13829;48.990;8.346;2022-07-29T02:00:44;19.70;99.90
5055;DHT22;13829;48.990;8.346;2022-07-29T02:03:13;19.70;99.90
5055;DHT22;13829;48.990;8.346;2022-07-29T02:05:46;19.70;99.90
5055;DHT22;13829;48.990;8.346;2022-07-29T02:08:15;19.80;99.90
5055;DHT22;13829;48.990;8.346;2022-07-29T02:10:46;19.70;99.90
5055;DHT22;13829;48.990;8.346;2022-07-29T02:13:15;19.70;99.90
5055;DHT22;13829;48.990;8.346;2022-07-29T02:15:47;19.50;99.90
5055;DHT22;13829;48.990;8.346;2022-07-29T02:18:17;19.40;99.90
5055;DHT22;13829;48.990;8.346;2022-07-29T02:20:48;19.30;99.90
5055;DHT22;13829;48.990;8.346;2022-07-29T02:23:21;19.10;99.90
5055;DHT22;13829;48.990;8.346;2022-07-29T02:25:52;19.10;99.90
5055;DHT22;13829;48.990;8.346;2022-07-29T02:28:22;19.10;99.90
5055;DHT22;13829;48.990;8.346;2022-07-29T02:30:55;19.10;99.90
5055;DHT22;13829;48.990;8.346;2022-07-29T02:33:27;19.20;99.90
5055;DHT22;13829;48.990;8.346;2022-07-29T02:35:58;19.30;99.90
5055;DHT22;13829;48.990;8.346;2022-07-29T02:38:28;19.20;99.90
5055;DHT22;13829;48.990;8.346;2022-07-29T02:41:17;19.20;99.90
5055;DHT22;13829;48.990;8.346;2022-07-29T02:43:48;19.10;99.90
5055;DHT22;13829;48.990;8.346;2022-07-29T02:46:27;19.00;99.90
5055;DHT22;13829;48.990;8.346;2022-07-29T02:49:02;18.90;99.90
5055;DHT22;13829;48.990;8.346;2022-07-29T02:51:41;18.80;99.90
5055;DHT22;13829;48.990;8.346;2022-07-29T02:54:19;18.80;99.90
5055;DHT22;13829;48.990;8.346;2022-07-29T02:56:52;18.70;99.90
5055;DHT22;13829;48.990;8.346;2022-07-29T02:59:25;18.70;99.90
5055;DHT22;13829;48.990;8.346;2022-07-29T03:01:57;18.60;99.90
5055;DHT22;13829;48.990;8.346;2022-07-29T03:04:27;18.50;99.90
5055;DHT22;13829;48.990;8.346;2022-07-29T03:06:59;18.50;99.90
5055;DHT22;13829;48.990;8.346;2022-07-29T03:09:28;18.50;99.90
5055;DHT22;13829;48.990;8.346;2022-07-29T03:11:57;18.40;99.90
5055;DHT22;13829;48.990;8.346;2022-07-29T03:14:24;18.40;99.90
5055;DHT22;13829;48.990;8.346;2022-07-29T03:16:52;18.40;99.90
5055;DHT22;13829;48.990;8.346;2022-07-29T03:19:21;18.50;99.90
5055;DHT22;13829;48.990;8.346;2022-07-29T03:21:48;18.50;99.90
5055;DHT22;13829;48.990;8.346;2022-07-29T03:24:32;18.50;99.90
5055;DHT22;13829;48.990;8.346;2022-07-29T03:27:00;18.50;99.90
5055;DHT22;13829;48.990;8.346;2022-07-29T03:29:27;18.40;99.90
5055;DHT22;13829;48.990;8.346;2022-07-29T03:31:55;18.40;99.90
5055;DHT22;13829;48.990;8.346;2022-07-29T03:34:23;18.40;99.90
5055;DHT22;13829;48.990;8.346;2022-07-29T03:36:50;18.40;99.90
5055;DHT22;13829;48.990;8.346;2022-07-29T03:39:20;18.40;99.90
5055;DHT22;13829;48.990;8.346;2022-07-29T03:41:54;18.40;99.90
5055;DHT22;13829;48.990;8.346;2022-07-29T03:44:24;18.40;99.90
5055;DHT22;13829;48.990;8.346;2022-07-29T03:46:55;18.40;99.90
5055;DHT22;13829;48.990;8.346;2022-07-29T03:49:29;18.30;99.90
5055;DHT22;13829;48.990;8.346;2022-07-29T03:51:59;18.30;99.90
5055;DHT22;13829;48.990;8.346;2022-07-29T03:54:27;18.20;99.90
5055;DHT22;13829;48.990;8.346;2022-07-29T03:56:54;18.30;99.90
5055;DHT22;13829;48.990;8.346;2022-07-29T03:59:26;18.20;99.90
5055;DHT22;13829;48.990;8.346;2022-07-29T04:01:55;18.20;99.90
5055;DHT22;13829;48.990;8.346;2022-07-29T04:04:24;18.20;99.90
5055;DHT22;13829;48.990;8.346;2022-07-29T04:06:53;18.20;99.90
5055;DHT22;13829;48.990;8.346;2022-07-29T04:09:20;18.20;99.90
5055;DHT22;13829;48.990;8.346;2022-07-29T04:11:48;18.10;99.90
5055;DHT22;13829;48.990;8.346;2022-07-29T04:14:15;18.20;99.90
5055;DHT22;13829;48.990;8.346;2022-07-29T04:16:42;18.10;99.90
5055;DHT22;13829;48.990;8.346;2022-07-29T04:19:09;18.20;99.90
5055;DHT22;13829;48.990;8.346;2022-07-29T04:21:37;18.30;99.90
5055;DHT22;13829;48.990;8.346;2022-07-29T04:24:06;18.40;99.90
5055;DHT22;13829;48.990;8.346;2022-07-29T04:26:34;18.40;99.90
5055;DHT22;13829;48.990;8.346;2022-07-29T04:29:01;18.40;99.90
5055;DHT22;13829;48.990;8.346;2022-07-29T04:31:29;18.50;99.90
5055;DHT22;13829;48.990;8.346;2022-07-29T04:33:56;18.60;99.90
5055;DHT22;13829;48.990;8.346;2022-07-29T04:36:23;18.60;99.90
5055;DHT22;13829;48.990;8.346;2022-07-29T04:38:50;18.60;99.90
5055;DHT22;13829;48.990;8.346;2022-07-29T04:41:18;18.60;99.90
5055;DHT22;13829;48.990;8.346;2022-07-29T04:43:45;18.60;99.90
5055;DHT22;13829;48.990;8.346;2022-07-29T04:46:13;18.50;99.90
5055;DHT22;13829;48.990;8.346;2022-07-29T04:48:40;18.60;99.90
5055;DHT22;13829;48.990;8.346;2022-07-29T04:51:07;18.60;99.90
5055;DHT22;13829;48.990;8.346;2022-07-29T04:53:34;18.60;99.90
5055;DHT22;13829;48.990;8.346;2022-07-29T04:56:02;18.60;99.90
5055;DHT22;13829;48.990;8.346;2022-07-29T04:58:31;18.70;99.90
5055;DHT22;13829;48.990;8.346;2022-07-29T05:00:58;18.70;99.90
5055;DHT22;13829;48.990;8.346;2022-07-29T05:03:25;18.70;99.90
5055;DHT22;13829;48.990;8.346;2022-07-29T05:05:52;18.70;99.90
5055;DHT22;13829;48.990;8.346;2022-07-29T05:08:19;18.80;99.90
5055;DHT22;13829;48.990;8.346;2022-07-29T05:10:46;18.80;99.90
5055;DHT22;13829;48.990;8.346;2022-07-29T05:13:13;18.90;99.90
5055;DHT22;13829;48.990;8.346;2022-07-29T05:15:42;18.90;99.90
5055;DHT22;13829;48.990;8.346;2022-07-29T05:18:10;19.00;99.90
5055;DHT22;13829;48.990;8.346;2022-07-29T05:20:37;19.00;99.90
5055;DHT22;13829;48.990;8.346;2022-07-29T05:23:04;19.10;99.90
5055;DHT22;13829;48.990;8.346;2022-07-29T05:25:31;19.20;99.90
5055;DHT22;13829;48.990;8.346;2022-07-29T05:27:58;19.30;99.90
5055;DHT22;13829;48.990;8.346;2022-07-29T05:30:25;19.30;99.90
5055;DHT22;13829;48.990;8.346;2022-07-29T05:32:54;19.40;99.90
5055;DHT22;13829;48.990;8.346;2022-07-29T05:35:21;19.60;99.90
5055;DHT22;13829;48.990;8.346;2022-07-29T05:37:48;19.70;99.90
5055;DHT22;13829;48.990;8.346;2022-07-29T05:40:16;19.80;99.90
5055;DHT22;13829;48.990;8.346;2022-07-29T05:42:43;19.90;99.90
5055;DHT22;13829;48.990;8.346;2022-07-29T05:45:10;20.10;99.90
5055;DHT22;13829;48.990;8.346;2022-07-29T05:47:37;20.20;99.90
5055;DHT22;13829;48.990;8.346;2022-07-29T05:50:07;20.30;99.90
5055;DHT22;13829;48.990;8.346;2022-07-29T05:52:35;20.40;99.90
5055;DHT22;13829;48.990;8.346;2022-07-29T05:55:02;20.40;99.90
5055;DHT22;13829;48.990;8.346;2022-07-29T05:57:31;20.60;99.90
5055;DHT22;13829;48.990;8.346;2022-07-29T05:59:58;20.60;99.90
5055;DHT22;13829;48.990;8.346;2022-07-29T06:02:25;20.70;99.90
5055;DHT22;13829;48.990;8.346;2022-07-29T06:04:53;20.80;99.90
5055;DHT22;13829;48.990;8.346;2022-07-29T06:07:21;20.90;99.90
5055;DHT22;13829;48.990;8.346;2022-07-29T06:09:48;21.00;99.90
5055;DHT22;13829;48.990;8.346;2022-07-29T06:12:15;21.30;99.90
5055;DHT22;13829;48.990;8.346;2022-07-29T06:14:42;21.50;99.90
5055;DHT22;13829;48.990;8.346;2022-07-29T06:17:09;21.80;99.90
5055;DHT22;13829;48.990;8.346;2022-07-29T06:19:38;22.00;99.90
5055;DHT22;13829;48.990;8.346;2022-07-29T06:22:05;22.20;99.90
5055;DHT22;13829;48.990;8.346;2022-07-29T06:24:33;22.30;99.90
5055;DHT22;13829;48.990;8.346;2022-07-29T06:27:00;22.40;99.90
5055;DHT22;13829;48.990;8.346;2022-07-29T06:29:27;22.60;99.90
5055;DHT22;13829;48.990;8.346;2022-07-29T06:31:54;22.70;99.90
5055;DHT22;13829;48.990;8.346;2022-07-29T06:34:21;22.90;99.90
5055;DHT22;13829;48.990;8.346;2022-07-29T06:36:49;23.10;99.90
5055;DHT22;13829;48.990;8.346;2022-07-29T06:39:18;23.30;99.40
5055;DHT22;13829;48.990;8.346;2022-07-29T06:41:48;23.80;99.10
5055;DHT22;13829;48.990;8.346;2022-07-29T06:44:16;24.10;97.70
5055;DHT22;13829;48.990;8.346;2022-07-29T06:46:44;24.60;97.00
5055;DHT22;13829;48.990;8.346;2022-07-29T06:49:14;24.80;95.90
5055;DHT22;13829;48.990;8.346;2022-07-29T06:51:42;24.90;95.00
5055;DHT22;13829;48.990;8.346;2022-07-29T06:54:09;25.00;95.00
5055;DHT22;13829;48.990;8.346;2022-07-29T06:56:37;25.20;94.20
5055;DHT22;13829;48.990;8.346;2022-07-29T06:59:09;25.30;94.40
5055;DHT22;13829;48.990;8.346;2022-07-29T07:01:39;25.60;93.40
5055;DHT22;13829;48.990;8.346;2022-07-29T07:04:08;26.00;92.70
5055;DHT22;13829;48.990;8.346;2022-07-29T07:06:36;26.80;91.20
5055;DHT22;13829;48.990;8.346;2022-07-29T07:09:03;28.10;87.50
5055;DHT22;13829;48.990;8.346;2022-07-29T07:11:30;29.40;90.60
5055;DHT22;13829;48.990;8.346;2022-07-29T07:13:58;30.30;81.30
5055;DHT22;13829;48.990;8.346;2022-07-29T07:16:26;31.30;77.60
5055;DHT22;13829;48.990;8.346;2022-07-29T07:18:53;32.30;74.00
5055;DHT22;13829;48.990;8.346;2022-07-29T07:21:20;32.40;71.20
5055;DHT22;13829;48.990;8.346;2022-07-29T07:23:47;32.50;68.60
5055;DHT22;13829;48.990;8.346;2022-07-29T07:26:14;32.60;68.20
5055;DHT22;13829;48.990;8.346;2022-07-29T07:28:41;32.90;67.90
5055;DHT22;13829;48.990;8.346;2022-07-29T07:31:08;33.50;67.30
5055;DHT22;13829;48.990;8.346;2022-07-29T07:33:36;33.70;63.50
5055;DHT22;13829;48.990;8.346;2022-07-29T07:36:03;34.00;62.50
5055;DHT22;13829;48.990;8.346;2022-07-29T07:38:31;34.40;62.50
5055;DHT22;13829;48.990;8.346;2022-07-29T07:40:58;35.10;60.40
5055;DHT22;13829;48.990;8.346;2022-07-29T07:43:25;34.10;60.30
5055;DHT22;13829;48.990;8.346;2022-07-29T07:45:52;33.60;61.40
5055;DHT22;13829;48.990;8.346;2022-07-29T07:48:19;32.40;63.10
5055;DHT22;13829;48.990;8.346;2022-07-29T07:50:48;32.20;63.40
5055;DHT22;13829;48.990;8.346;2022-07-29T07:53:16;32.20;65.50
5055;DHT22;13829;48.990;8.346;2022-07-29T07:55:43;32.30;62.00
5055;DHT22;13829;48.990;8.346;2022-07-29T07:58:11;31.80;63.30
5055;DHT22;13829;48.990;8.346;2022-07-29T08:00:38;31.00;64.20
5055;DHT22;13829;48.990;8.346;2022-07-29T08:03:05;30.20;67.00
5055;DHT22;13829;48.990;8.346;2022-07-29T08:05:32;30.70;66.60
5055;DHT22;13829;48.990;8.346;2022-07-29T08:08:00;31.10;64.10
5055;DHT22;13829;48.990;8.346;2022-07-29T08:10:27;30.90;63.40
5055;DHT22;13829;48.990;8.346;2022-07-29T08:13:11;30.70;65.30
5055;DHT22;13829;48.990;8.346;2022-07-29T08:15:39;29.80;66.60
5055;DHT22;13829;48.990;8.346;2022-07-29T08:18:08;29.40;67.00
5055;DHT22;13829;48.990;8.346;2022-07-29T08:20:37;29.50;67.50
5055;DHT22;13829;48.990;8.346;2022-07-29T08:23:07;29.30;66.10
5055;DHT22;13829;48.990;8.346;2022-07-29T08:25:35;29.30;67.60
5055;DHT22;13829;48.990;8.346;2022-07-29T08:28:04;29.60;66.40
5055;DHT22;13829;48.990;8.346;2022-07-29T08:30:31;30.90;67.20
5055;DHT22;13829;48.990;8.346;2022-07-29T08:32:58;31.80;62.20
5055;DHT22;13829;48.990;8.346;2022-07-29T08:35:26;32.50;63.00
5055;DHT22;13829;48.990;8.346;2022-07-29T08:37:53;33.30;59.30
5055;DHT22;13829;48.990;8.346;2022-07-29T08:40:23;33.30;58.60
5055;DHT22;13829;48.990;8.346;2022-07-29T08:42:51;32.90;58.00
5055;DHT22;13829;48.990;8.346;2022-07-29T08:45:18;32.60;58.80
5055;DHT22;13829;48.990;8.346;2022-07-29T08:47:46;32.00;59.70
5055;DHT22;13829;48.990;8.346;2022-07-29T08:50:13;32.00;61.80
5055;DHT22;13829;48.990;8.346;2022-07-29T08:52:41;32.50;61.00
5055;DHT22;13829;48.990;8.346;2022-07-29T08:55:09;32.60;59.60
5055;DHT22;13829;48.990;8.346;2022-07-29T08:57:39;32.10;60.80
5055;DHT22;13829;48.990;8.346;2022-07-29T09:00:07;31.90;62.10
5055;DHT22;13829;48.990;8.346;2022-07-29T09:02:39;31.30;61.00
5055;DHT22;13829;48.990;8.346;2022-07-29T09:05:08;31.20;61.40
5055;DHT22;13829;48.990;8.346;2022-07-29T09:07:36;31.30;60.00
5055;DHT22;13829;48.990;8.346;2022-07-29T09:10:08;31.30;60.00
5055;DHT22;13829;48.990;8.346;2022-07-29T09:12:36;31.30;60.10
5055;DHT22;13829;48.990;8.346;2022-07-29T09:15:06;31.50;60.70
5055;DHT22;13829;48.990;8.346;2022-07-29T09:17:44;31.50;60.30
5055;DHT22;13829;48.990;8.346;2022-07-29T09:20:14;31.60;60.00
5055;DHT22;13829;48.990;8.346;2022-07-29T09:22:42;31.60;59.90
5055;DHT22;13829;48.990;8.346;2022-07-29T09:25:11;31.60;60.50
5055;DHT22;13829;48.990;8.346;2022-07-29T09:27:40;31.70;60.50
5055;DHT22;13829;48.990;8.346;2022-07-29T09:30:08;31.70;60.30
5055;DHT22;13829;48.990;8.346;2022-07-29T09:32:55;31.80;59.50
5055;DHT22;13829;48.990;8.346;2022-07-29T09:35:25;31.70;60.80
5055;DHT22;13829;48.990;8.346;2022-07-29T09:37:52;31.80;62.80
5055;DHT22;13829;48.990;8.346;2022-07-29T09:40:21;31.90;62.40
5055;DHT22;13829;48.990;8.346;2022-07-29T09:42:51;32.00;61.10
5055;DHT22;13829;48.990;8.346;2022-07-29T09:45:28;31.80;60.90
5055;DHT22;13829;48.990;8.346;2022-07-29T09:47:56;31.40;61.20
5055;DHT22;13829;48.990;8.346;2022-07-29T09:50:35;31.30;60.60
5055;DHT22;13829;48.990;8.346;2022-07-29T09:53:04;31.20;61.50
5055;DHT22;13829;48.990;8.346;2022-07-29T09:55:32;30.90;61.70
5055;DHT22;13829;48.990;8.346;2022-07-29T09:58:18;30.90;61.40
5055;DHT22;13829;48.990;8.346;2022-07-29T10:00:47;30.40;61.10
5055;DHT22;13829;48.990;8.346;2022-07-29T10:03:16;30.00;61.50
5055;DHT22;13829;48.990;8.346;2022-07-29T10:05:44;29.80;62.80
5055;DHT22;13829;48.990;8.346;2022-07-29T10:08:12;29.60;63.70
5055;DHT22;13829;48.990;8.346;2022-07-29T10:10:41;29.30;63.90
5055;DHT22;13829;48.990;8.346;2022-07-29T10:13:11;29.10;64.00
5055;DHT22;13829;48.990;8.346;2022-07-29T10:15:42;28.90;63.40
5055;DHT22;13829;48.990;8.346;2022-07-29T10:18:13;29.00;63.50
5055;DHT22;13829;48.990;8.346;2022-07-29T10:20:42;29.10;63.40
5055;DHT22;13829;48.990;8.346;2022-07-29T10:23:09;29.00;63.10
5055;DHT22;13829;48.990;8.346;2022-07-29T10:25:37;28.80;62.50
5055;DHT22;13829;48.990;8.346;2022-07-29T10:28:05;28.60;62.90
5055;DHT22;13829;48.990;8.346;2022-07-29T10:30:33;28.90;64.00
5055;DHT22;13829;48.990;8.346;2022-07-29T10:33:15;28.90;64.40
5055;DHT22;13829;48.990;8.346;2022-07-29T10:36:02;28.80;62.90
5055;DHT22;13829;48.990;8.346;2022-07-29T10:38:45;28.80;63.70
5055;DHT22;13829;48.990;8.346;2022-07-29T10:41:39;28.70;62.70
5055;DHT22;13829;48.990;8.346;2022-07-29T10:44:17;28.60;63.10
5055;DHT22;13829;48.990;8.346;2022-07-29T10:46:46;28.50;62.40
5055;DHT22;13829;48.990;8.346;2022-07-29T10:49:16;28.40;64.40
5055;DHT22;13829;48.990;8.346;2022-07-29T10:52:01;28.40;63.30
5055;DHT22;13829;48.990;8.346;2022-07-29T10:54:42;28.30;62.80
5055;DHT22;13829;48.990;8.346;2022-07-29T10:57:20;28.40;63.70
5055;DHT22;13829;48.990;8.346;2022-07-29T11:00:25;28.50;62.70
5055;DHT22;13829;48.990;8.346;2022-07-29T11:02:54;28.70;63.60
5055;DHT22;13829;48.990;8.346;2022-07-29T11:05:24;28.70;63.20
5055;DHT22;13829;48.990;8.346;2022-07-29T11:08:23;28.90;63.40
5055;DHT22;13829;48.990;8.346;2022-07-29T11:10:53;28.90;62.40
5055;DHT22;13829;48.990;8.346;2022-07-29T11:13:51;29.00;63.10
5055;DHT22;13829;48.990;8.346;2022-07-29T11:16:21;29.00;61.90
5055;DHT22;13829;48.990;8.346;2022-07-29T11:19:20;29.20;63.40
5055;DHT22;13829;48.990;8.346;2022-07-29T11:21:51;29.20;61.90
5055;DHT22;13829;48.990;8.346;2022-07-29T11:24:20;29.00;61.50
5055;DHT22;13829;48.990;8.346;2022-07-29T11:27:08;29.10;61.80
5055;DHT22;13829;48.990;8.346;2022-07-29T11:29:48;29.00;62.20
5055;DHT22;13829;48.990;8.346;2022-07-29T11:32:17;29.10;62.20
5055;DHT22;13829;48.990;8.346;2022-07-29T11:34:47;29.00;61.00
5055;DHT22;13829;48.990;8.346;2022-07-29T11:37:23;29.00;61.50
5055;DHT22;13829;48.990;8.346;2022-07-29T11:40:11;29.00;61.00
5055;DHT22;13829;48.990;8.346;2022-07-29T11:42:44;29.00;61.20
5055;DHT22;13829;48.990;8.346;2022-07-29T11:45:17;29.10;61.10
5055;DHT22;13829;48.990;8.346;2022-07-29T11:47:51;29.10;60.90
5055;DHT22;13829;48.990;8.346;2022-07-29T11:50:35;29.10;60.80
5055;DHT22;13829;48.990;8.346;2022-07-29T11:53:12;29.10;62.10
5055;DHT22;13829;48.990;8.346;2022-07-29T11:55:41;29.20;61.50
5055;DHT22;13829;48.990;8.346;2022-07-29T11:58:08;29.10;60.50
5055;DHT22;13829;48.990;8.346;2022-07-29T12:00:37;29.10;61.20
5055;DHT22;13829;48.990;8.346;2022-07-29T12:03:06;29.00;60.40
5055;DHT22;13829;48.990;8.346;2022-07-29T12:05:37;29.00;60.40
5055;DHT22;13829;48.990;8.346;2022-07-29T12:08:13;28.90;60.50
5055;DHT22;13829;48.990;8.346;2022-07-29T12:10:42;28.90;59.80
5055;DHT22;13829;48.990;8.346;2022-07-29T12:13:10;29.00;60.20
5055;DHT22;13829;48.990;8.346;2022-07-29T12:15:37;29.10;60.70
5055;DHT22;13829;48.990;8.346;2022-07-29T12:18:13;29.10;59.30
5055;DHT22;13829;48.990;8.346;2022-07-29T12:20:41;29.30;59.90
5055;DHT22;13829;48.990;8.346;2022-07-29T12:23:10;29.30;59.20
5055;DHT22;13829;48.990;8.346;2022-07-29T12:25:40;29.40;61.10
5055;DHT22;13829;48.990;8.346;2022-07-29T12:28:09;29.50;60.20
5055;DHT22;13829;48.990;8.346;2022-07-29T12:30:42;29.50;59.50
5055;DHT22;13829;48.990;8.346;2022-07-29T12:33:17;29.60;59.60
5055;DHT22;13829;48.990;8.346;2022-07-29T12:35:48;29.60;59.50
5055;DHT22;13829;48.990;8.346;2022-07-29T12:38:19;29.70;60.20
5055;DHT22;13829;48.990;8.346;2022-07-29T12:40:47;29.90;60.60
5055;DHT22;13829;48.990;8.346;2022-07-29T12:43:18;30.00;60.70
5055;DHT22;13829;48.990;8.346;2022-07-29T12:45:46;30.00;57.90
5055;DHT22;13829;48.990;8.346;2022-07-29T12:48:15;30.00;58.70
5055;DHT22;13829;48.990;8.346;2022-07-29T12:50:55;29.90;57.60
5055;DHT22;13829;48.990;8.346;2022-07-29T12:53:25;29.80;58.60
5055;DHT22;13829;48.990;8.346;2022-07-29T12:55:55;29.60;57.40
5055;DHT22;13829;48.990;8.346;2022-07-29T12:58:28;29.60;58.10
5055;DHT22;13829;48.990;8.346;2022-07-29T13:01:05;29.70;60.60
5055;DHT22;13829;48.990;8.346;2022-07-29T13:03:49;29.60;58.70
5055;DHT22;13829;48.990;8.346;2022-07-29T13:06:32;29.70;58.80
5055;DHT22;13829;48.990;8.346;2022-07-29T13:09:07;29.60;59.50
5055;DHT22;13829;48.990;8.346;2022-07-29T13:11:38;29.60;59.20
5055;DHT22;13829;48.990;8.346;2022-07-29T13:14:07;29.50;59.50
5055;DHT22;13829;48.990;8.346;2022-07-29T13:16:37;29.50;58.90
5055;DHT22;13829;48.990;8.346;2022-07-29T13:19:33;29.50;58.80
5055;DHT22;13829;48.990;8.346;2022-07-29T13:22:01;29.60;59.60
5055;DHT22;13829;48.990;8.346;2022-07-29T13:24:30;29.60;58.40
5055;DHT22;13829;48.990;8.346;2022-07-29T13:26:57;29.60;58.30
5055;DHT22;13829;48.990;8.346;2022-07-29T13:29:24;29.60;58.20
5055;DHT22;13829;48.990;8.346;2022-07-29T13:31:52;29.60;58.40
5055;DHT22;13829;48.990;8.346;2022-07-29T13:34:19;29.70;59.10
5055;DHT22;13829;48.990;8.346;2022-07-29T13:36:47;29.70;58.60
5055;DHT22;13829;48.990;8.346;2022-07-29T13:39:14;29.60;57.10
5055;DHT22;13829;48.990;8.346;2022-07-29T13:41:43;29.60;57.40
5055;DHT22;13829;48.990;8.346;2022-07-29T13:44:10;29.60;57.20
5055;DHT22;13829;48.990;8.346;2022-07-29T13:46:37;29.50;58.00
5055;DHT22;13829;48.990;8.346;2022-07-29T13:49:04;29.40;57.60
5055;DHT22;13829;48.990;8.346;2022-07-29T13:51:31;29.40;57.70
5055;DHT22;13829;48.990;8.346;2022-07-29T13:53:57;29.50;57.40
5055;DHT22;13829;48.990;8.346;2022-07-29T13:56:24;29.50;57.80
5055;DHT22;13829;48.990;8.346;2022-07-29T13:58:53;29.50;58.00
5055;DHT22;13829;48.990;8.346;2022-07-29T14:01:20;29.60;57.50
5055;DHT22;13829;48.990;8.346;2022-07-29T14:03:47;29.60;57.70
5055;DHT22;13829;48.990;8.346;2022-07-29T14:06:14;29.60;57.10
5055;DHT22;13829;48.990;8.346;2022-07-29T14:08:41;29.60;57.00
5055;DHT22;13829;48.990;8.346;2022-07-29T14:11:08;29.60;56.50
5055;DHT22;13829;48.990;8.346;2022-07-29T14:13:35;29.60;58.50
5055;DHT22;13829;48.990;8.346;2022-07-29T14:16:04;29.50;56.80
5055;DHT22;13829;48.990;8.346;2022-07-29T14:18:32;29.50;57.00
5055;DHT22;13829;48.990;8.346;2022-07-29T14:20:59;29.60;57.00
5055;DHT22;13829;48.990;8.346;2022-07-29T14:23:26;29.60;57.00
5055;DHT22;13829;48.990;8.346;2022-07-29T14:25:53;29.60;56.80
5055;DHT22;13829;48.990;8.346;2022-07-29T14:28:20;29.50;56.20
5055;DHT22;13829;48.990;8.346;2022-07-29T14:30:47;29.50;57.00
5055;DHT22;13829;48.990;8.346;2022-07-29T14:33:15;29.50;56.00
5055;DHT22;13829;48.990;8.346;2022-07-29T14:35:42;29.30;56.00
5055;DHT22;13829;48.990;8.346;2022-07-29T14:38:11;29.20;57.20
5055;DHT22;13829;48.990;8.346;2022-07-29T14:40:38;29.20;56.30
5055;DHT22;13829;48.990;8.346;2022-07-29T14:43:05;29.10;56.20
5055;DHT22;13829;48.990;8.346;2022-07-29T14:45:32;29.10;56.60
5055;DHT22;13829;48.990;8.346;2022-07-29T14:47:59;29.10;56.70
5055;DHT22;13829;48.990;8.346;2022-07-29T14:50:27;29.10;56.00
5055;DHT22;13829;48.990;8.346;2022-07-29T14:52:54;29.10;56.60
5055;DHT22;13829;48.990;8.346;2022-07-29T14:55:21;29.20;56.40
5055;DHT22;13829;48.990;8.346;2022-07-29T14:57:48;29.20;56.00
5055;DHT22;13829;48.990;8.346;2022-07-29T15:00:16;29.20;55.80
5055;DHT22;13829;48.990;8.346;2022-07-29T15:02:44;29.30;55.70
5055;DHT22;13829;48.990;8.346;2022-07-29T15:05:11;29.40;56.20
5055;DHT22;13829;48.990;8.346;2022-07-29T15:07:39;29.40;55.40
5055;DHT22;13829;48.990;8.346;2022-07-29T15:10:07;29.40;54.40
5055;DHT22;13829;48.990;8.346;2022-07-29T15:12:34;29.40;54.10
5055;DHT22;13829;48.990;8.346;2022-07-29T15:15:01;29.30;53.90
5055;DHT22;13829;48.990;8.346;2022-07-29T15:17:29;29.30;53.90
5055;DHT22;13829;48.990;8.346;2022-07-29T15:19:56;29.20;53.00
5055;DHT22;13829;48.990;8.346;2022-07-29T15:22:23;29.20;54.90
5055;DHT22;13829;48.990;8.346;2022-07-29T15:24:51;29.10;53.90
5055;DHT22;13829;48.990;8.346;2022-07-29T15:27:18;29.10;54.20
5055;DHT22;13829;48.990;8.346;2022-07-29T15:29:45;29.10;54.10
5055;DHT22;13829;48.990;8.346;2022-07-29T15:32:12;29.00;53.70
5055;DHT22;13829;48.990;8.346;2022-07-29T15:34:39;29.10;53.50
5055;DHT22;13829;48.990;8.346;2022-07-29T15:37:06;29.20;54.40
5055;DHT22;13829;48.990;8.346;2022-07-29T15:39:33;29.30;53.60
5055;DHT22;13829;48.990;8.346;2022-07-29T15:42:02;29.30;53.20
5055;DHT22;13829;48.990;8.346;2022-07-29T15:44:29;29.30;54.20
5055;DHT22;13829;48.990;8.346;2022-07-29T15:46:57;29.30;53.80
5055;DHT22;13829;48.990;8.346;2022-07-29T15:49:30;29.30;54.10
5055;DHT22;13829;48.990;8.346;2022-07-29T15:51:58;29.20;53.30
5055;DHT22;13829;48.990;8.346;2022-07-29T15:54:26;29.20;52.90
5055;DHT22;13829;48.990;8.346;2022-07-29T15:56:54;29.10;53.00
5055;DHT22;13829;48.990;8.346;2022-07-29T15:59:23;28.90;52.90
5055;DHT22;13829;48.990;8.346;2022-07-29T16:01:50;28.80;53.50
5055;DHT22;13829;48.990;8.346;2022-07-29T16:04:17;28.70;53.00